Maliotenam, Canada
Current Conditions -  °F | °C
As of 5:00 PM on Friday 24 Oct 2014 (Local Time) from CYZV Reporting Station
Broken Clouds Broken Clouds  
Wind Chill: 44°   Ceiling: 22000
Heat Index: 46°   Visibility: 30mi
Dew Point: 23°   Wind: 5mph
Humidity: 40%   Direction: 290°WNW
Pressure: 29.81"   Gusts: NA
Location:  50.21°N, 66.19°W
Report Text: CYZV 242100Z 29004KT 30SM FEW140 BKN220 08/M05 A2981 RMK AC2CI5 SLP096
Loading
Personal Weather Stations






























Interactive Weather Map
Tropical Storm Tracking
New forecast layout! Learn more

10-Day Weather Forecast

Advertisements
Track Severe Weather on mobile